createdAt,value
2017-09-06T00:01:31.005Z,1006.96
2017-09-06T00:11:30.966Z,1006.88
2017-09-06T00:21:31.029Z,1006.79
2017-09-06T00:31:30.982Z,1006.72
2017-09-06T00:41:30.945Z,1006.56
2017-09-06T00:51:31.017Z,1006.52
2017-09-06T01:01:30.985Z,1006.39
2017-09-06T01:11:30.925Z,1006.38
2017-09-06T01:21:30.982Z,1006.24
2017-09-06T01:31:30.944Z,1006.18
2017-09-06T01:41:31.024Z,1006.21
2017-09-06T01:51:30.985Z,1006.18
2017-09-06T02:01:30.937Z,1006.17
2017-09-06T02:11:31.014Z,1006.04
2017-09-06T02:21:30.974Z,1005.9
2017-09-06T02:31:31.028Z,1005.78
2017-09-06T02:41:30.976Z,1005.48
2017-09-06T02:51:30.963Z,1005.43
2017-09-06T03:01:31.014Z,1005.39
2017-09-06T03:11:30.972Z,1005.4
2017-09-06T03:21:31.031Z,1005.27
2017-09-06T03:31:31.001Z,1005.12
2017-09-06T03:41:30.958Z,1004.99
2017-09-06T03:51:31.011Z,1004.95
2017-09-06T04:01:30.970Z,1004.89
2017-09-06T04:11:31.063Z,1004.85
2017-09-06T04:21:31.018Z,1004.75
2017-09-06T04:31:30.960Z,1004.68
2017-09-06T04:41:31.024Z,1004.58
2017-09-06T04:51:30.985Z,1004.54
2017-09-06T05:01:30.957Z,1004.48
2017-09-06T05:11:31.004Z,1004.42
2017-09-06T05:21:30.966Z,1004.41
2017-09-06T05:31:31.059Z,1004.34
2017-09-06T05:41:31.012Z,1004.34
2017-09-06T05:51:30.985Z,1004.39
2017-09-06T06:01:31.034Z,1004.43
2017-09-06T06:11:33.401Z,1004.4
2017-09-06T06:21:31.063Z,1004.35
2017-09-06T06:31:30.925Z,1004.37
2017-09-06T06:41:30.947Z,1004.36
2017-09-06T06:51:30.938Z,1004.36
2017-09-06T07:01:30.943Z,1004.37
2017-09-06T07:11:30.940Z,1004.34
2017-09-06T07:21:30.953Z,1004.37
2017-09-06T07:31:30.961Z,1004.39
2017-09-06T07:41:30.947Z,1004.4
2017-09-06T07:51:30.973Z,1004.43
2017-09-06T08:01:30.941Z,1004.56
2017-09-06T08:11:30.954Z,1004.73
2017-09-06T08:21:30.950Z,1004.9
2017-09-06T08:31:30.966Z,1004.97
2017-09-06T08:41:30.956Z,1005.31
2017-09-06T08:51:30.943Z,1005.56
2017-09-06T09:01:30.957Z,1005.85
2017-09-06T09:11:30.946Z,1005.87
2017-09-06T09:21:30.957Z,1006.17
2017-09-06T09:31:30.937Z,1006.34
2017-09-06T09:41:30.946Z,1006.42
2017-09-06T09:51:30.947Z,1006.45
2017-09-06T10:01:30.947Z,1006.46
2017-09-06T10:11:30.953Z,1006.46
2017-09-06T10:21:30.956Z,1006.54
2017-09-06T10:31:31.005Z,1006.47
2017-09-06T10:41:31.075Z,1006.53
2017-09-06T10:51:31.031Z,1006.54
2017-09-06T11:01:30.999Z,1006.51
2017-09-06T11:11:31.040Z,1006.58
2017-09-06T11:21:31.017Z,1006.63
2017-09-06T11:31:31.076Z,1006.64
2017-09-06T11:41:31.037Z,1006.58
2017-09-06T11:51:30.981Z,1006.7
2017-09-06T12:01:31.054Z,1006.69
2017-09-06T12:11:31.047Z,1006.98
2017-09-06T12:21:31.122Z,1006.79
2017-09-06T12:31:30.985Z,1007.11
2017-09-06T12:41:30.985Z,1007.19
2017-09-06T12:51:30.989Z,1007.17
2017-09-06T13:01:30.978Z,1007.11
2017-09-06T13:11:30.994Z,1007.58
2017-09-06T13:21:30.988Z,1007.59
2017-09-06T13:31:31.029Z,1007.5
2017-09-06T13:41:31.081Z,1007.51
2017-09-06T13:51:31.034Z,1007.5
2017-09-06T14:01:31.008Z,1007.55
2017-09-06T14:11:31.072Z,1007.56
2017-09-06T14:21:31.013Z,1007.62
2017-09-06T14:31:31.099Z,1007.68
2017-09-06T14:41:32.082Z,1007.76
2017-09-06T14:51:31.007Z,1007.94
2017-09-06T15:01:31.083Z,1007.97
2017-09-06T15:11:31.027Z,1007.95
2017-09-06T15:21:31.116Z,1007.86
2017-09-06T15:31:31.007Z,1007.9
2017-09-06T15:41:30.981Z,1007.91
2017-09-06T15:51:31.005Z,1007.93
2017-09-06T16:01:31.000Z,1007.96
2017-09-06T16:11:31.005Z,1008.19
2017-09-06T16:21:30.994Z,1008.41
2017-09-06T16:31:30.999Z,1008.31
2017-09-06T16:41:31.061Z,1008.28
2017-09-06T16:51:30.997Z,1008.24
2017-09-06T17:01:31.008Z,1008.11
2017-09-06T17:11:30.992Z,1008.25
2017-09-06T17:21:31.052Z,1008.22
2017-09-06T17:31:31.056Z,1008.3
2017-09-06T17:41:30.997Z,1008.3
2017-09-06T17:51:31.015Z,1008.37
2017-09-06T18:01:30.983Z,1008.47
2017-09-06T18:11:30.983Z,1008.56
2017-09-06T18:21:30.988Z,1008.69
2017-09-06T18:31:31.005Z,1008.85
2017-09-06T18:41:30.994Z,1008.9
2017-09-06T18:51:30.985Z,1008.96
2017-09-06T19:01:31.017Z,1009.06
2017-09-06T19:11:31.005Z,1009.07
2017-09-06T19:21:30.992Z,1009.13
2017-09-06T19:31:31.001Z,1009.16
2017-09-06T19:41:31.004Z,1009.17
2017-09-06T19:51:31.098Z,1009.09
2017-09-06T20:01:31.001Z,1009.07
2017-09-06T20:11:31.564Z,1008.97
2017-09-06T20:21:31.002Z,1008.89
2017-09-06T20:31:31.002Z,1008.87
2017-09-06T20:41:31.002Z,1008.84
2017-09-06T20:51:31.030Z,1008.93
2017-09-06T21:01:31.007Z,1008.88
2017-09-06T21:11:30.991Z,1008.95
2017-09-06T21:21:30.989Z,1008.87
2017-09-06T21:31:30.997Z,1008.91
2017-09-06T21:41:30.992Z,1008.94
2017-09-06T21:51:31.010Z,1008.91
2017-09-06T22:01:30.991Z,1008.83
2017-09-06T22:11:30.982Z,1008.74
2017-09-06T22:21:32.034Z,1008.73
2017-09-06T22:31:31.137Z,1008.8
2017-09-06T22:41:32.057Z,1008.73
2017-09-06T22:51:31.101Z,1008.81
2017-09-06T23:01:32.994Z,1008.75
2017-09-06T23:11:31.027Z,1008.78
2017-09-06T23:21:34.461Z,1008.76
2017-09-06T23:31:32.077Z,1008.74
2017-09-06T23:51:31.054Z,1008.52
